createdAt,value
2016-05-15T17:18:02.050Z,7992
2016-05-15T17:18:14.753Z,7960
2016-05-15T17:19:15.177Z,7548
2016-05-15T17:20:15.665Z,6928
2016-05-15T17:21:14.808Z,6096
2016-05-15T17:22:14.686Z,5100
2016-05-15T17:23:14.813Z,4260
2016-05-15T17:24:14.753Z,3784
2016-05-15T17:25:15.022Z,3516
2016-05-15T17:26:14.666Z,3296
2016-05-15T17:27:14.824Z,3152
2016-05-15T17:28:14.842Z,3152
2016-05-15T17:29:14.830Z,3436
2016-05-15T17:30:29.285Z,4252
2016-05-15T17:31:15.272Z,4932
2016-05-15T17:32:14.541Z,5808
2016-05-15T17:33:14.824Z,6244
2016-05-15T17:34:14.624Z,6192
2016-05-15T17:35:29.330Z,6120
2016-05-15T17:36:14.832Z,6144
2016-05-15T17:37:14.382Z,6104
2016-05-15T17:38:29.541Z,5696
2016-05-15T17:39:15.090Z,5268
2016-05-15T17:40:15.015Z,4636
2016-05-15T17:41:14.909Z,4108
2016-05-15T17:42:14.677Z,3732
2016-05-15T17:43:14.712Z,3444
2016-05-15T17:44:14.839Z,3204
2016-05-15T17:45:14.670Z,3024
2016-05-15T17:46:14.859Z,2908
2016-05-15T17:47:15.034Z,2804
2016-05-15T17:48:14.864Z,2740
2016-05-15T17:49:29.103Z,2660
2016-05-15T17:50:14.714Z,2612
2016-05-15T17:51:15.092Z,2560
2016-05-15T17:52:14.875Z,2512
2016-05-15T17:53:14.847Z,2436
2016-05-15T17:54:14.725Z,2356
2016-05-15T17:55:14.884Z,2284
2016-05-15T17:56:28.933Z,2204
2016-05-15T17:57:14.889Z,2168
2016-05-15T17:58:15.141Z,2112
2016-05-15T17:59:29.379Z,2052
2016-05-15T18:01:14.885Z,2012
2016-05-15T18:02:15.090Z,2032
2016-05-15T18:03:14.874Z,2072
2016-05-15T18:04:15.111Z,2128
2016-05-15T18:05:14.926Z,2176
2016-05-15T18:06:14.929Z,2136
2016-05-15T18:07:14.885Z,2056
2016-05-15T18:08:15.121Z,1908
2016-05-15T18:09:14.952Z,1784
2016-05-15T18:10:15.159Z,1720
2016-05-15T18:11:14.880Z,1668
2016-05-15T18:12:14.914Z,1624
2016-05-15T18:13:14.948Z,1588
2016-05-15T18:14:14.747Z,1556
2016-05-15T18:15:14.922Z,1520
2016-05-15T18:16:15.159Z,1476
2016-05-15T18:17:15.146Z,1404
2016-05-15T18:18:14.898Z,1308
2016-05-15T18:19:15.323Z,1236
2016-05-15T18:20:14.811Z,1176
2016-05-15T18:21:14.641Z,1120
2016-05-15T18:22:14.909Z,1064
2016-05-15T18:23:29.022Z,1004
2016-05-15T18:24:14.868Z,972
2016-05-15T18:25:15.870Z,932
2016-05-15T18:26:14.810Z,892
2016-05-15T18:27:28.986Z,848
2016-05-15T18:28:15.347Z,820
2016-05-15T18:29:14.975Z,784
2016-05-15T18:30:14.946Z,752
2016-05-15T18:31:14.825Z,716
2016-05-15T18:32:15.077Z,680
2016-05-15T18:33:14.955Z,648
2016-05-15T18:34:14.488Z,620
2016-05-15T18:35:28.148Z,580
2016-05-15T18:36:15.009Z,556
2016-05-15T18:38:14.921Z,504
2016-05-15T18:39:29.096Z,468
2016-05-15T18:40:14.957Z,444
2016-05-15T18:41:15.149Z,420
2016-05-15T18:42:14.963Z,392
2016-05-15T18:43:15.168Z,372
2016-05-15T18:44:14.969Z,344
2016-05-15T18:45:15.190Z,320
2016-05-15T18:46:15.162Z,296
2016-05-15T18:47:14.993Z,276
2016-05-15T18:48:15.151Z,256
2016-05-15T18:49:29.013Z,232
2016-05-15T18:50:15.406Z,220
2016-05-15T18:51:15.003Z,200
2016-05-15T18:52:29.053Z,184
2016-05-15T18:53:15.227Z,168
2016-05-15T18:54:15.136Z,152
2016-05-15T18:55:14.967Z,136
2016-05-15T18:56:14.970Z,124
2016-05-15T18:57:15.175Z,112
2016-05-15T18:58:14.693Z,100
2016-05-15T18:59:29.274Z,88
2016-05-15T19:00:15.231Z,80
2016-05-15T19:01:14.858Z,72
2016-05-15T19:02:16.017Z,64
2016-05-15T19:03:14.988Z,56
2016-05-15T19:04:14.819Z,48
2016-05-15T19:05:14.978Z,44
2016-05-15T19:06:15.747Z,40
2016-05-15T19:07:15.046Z,32
2016-05-15T19:08:15.204Z,28
2016-05-15T19:09:14.505Z,24
2016-05-15T19:10:14.960Z,20
2016-05-15T19:11:14.854Z,16
2016-05-15T19:12:14.982Z,12
2016-05-15T19:13:14.921Z,8
2016-05-15T19:14:14.987Z,8
2016-05-15T19:15:14.959Z,8
2016-05-15T19:16:15.164Z,8
2016-05-15T19:17:14.964Z,4
2016-05-15T19:18:15.029Z,4
2016-05-15T19:19:15.015Z,0
2016-05-15T19:20:29.331Z,4
2016-05-15T19:21:15.020Z,0
2016-05-15T19:22:15.023Z,0
2016-05-15T19:23:15.386Z,0
2016-05-15T19:24:15.639Z,0
2016-05-15T19:25:14.986Z,0
2016-05-15T19:26:29.081Z,0
2016-05-15T19:27:14.991Z,0
2016-05-15T19:28:29.072Z,0
2016-05-15T19:29:15.589Z,0
2016-05-15T19:30:15.014Z,0
2016-05-15T19:31:14.955Z,0
2016-05-15T19:32:14.972Z,0
2016-05-15T19:33:15.397Z,0
2016-05-15T19:34:15.009Z,0
2016-05-15T19:35:15.450Z,0
2016-05-15T19:36:14.999Z,0
2016-05-15T19:37:15.205Z,0
2016-05-15T19:38:14.988Z,0
2016-05-15T19:39:15.054Z,0
2016-05-15T19:40:14.979Z,0
2016-05-15T19:41:14.996Z,0
2016-05-15T19:43:15.065Z,0
2016-05-15T19:44:15.192Z,0
2016-05-15T19:45:15.008Z,0
2016-05-15T19:46:14.980Z,0
2016-05-15T19:47:14.966Z,0
2016-05-15T19:48:14.984Z,0
2016-05-15T19:49:15.409Z,0
2016-05-15T19:50:15.271Z,0
2016-05-15T19:51:14.977Z,0
2016-05-15T19:52:14.808Z,0
2016-05-15T19:53:15.200Z,0
2016-05-15T19:54:15.376Z,0
2016-05-15T19:55:15.441Z,0
2016-05-15T19:56:15.037Z,0
2016-05-15T19:57:14.556Z,0
2016-05-15T19:58:14.980Z,0
2016-05-15T19:59:14.842Z,0
2016-05-15T20:01:15.238Z,0
2016-05-15T20:02:14.835Z,0
2016-05-15T20:03:18.213Z,0
2016-05-15T20:04:15.012Z,0
2016-05-15T20:05:15.202Z,0
2016-05-15T20:06:15.205Z,0
2016-05-15T20:07:15.004Z,0
2016-05-15T20:08:15.022Z,0
2016-05-15T20:09:29.479Z,0
2016-05-15T20:10:29.107Z,0
2016-05-15T20:11:15.047Z,0
2016-05-15T20:12:14.971Z,0
2016-05-15T20:13:14.973Z,0
2016-05-15T20:14:15.070Z,0
2016-05-15T20:15:14.996Z,0
2016-05-15T20:16:15.451Z,0
2016-05-15T20:17:15.187Z,0
2016-05-15T20:18:15.503Z,0
2016-05-15T20:19:15.193Z,0
2016-05-15T20:20:14.820Z,0
2016-05-15T20:21:14.854Z,0
2016-05-15T20:22:14.967Z,0
2016-05-15T20:23:15.188Z,0
2016-05-15T20:24:14.690Z,0
2016-05-15T20:25:15.084Z,0
2016-05-15T20:26:15.212Z,0
2016-05-15T20:27:14.980Z,0
2016-05-15T20:28:14.983Z,0
2016-05-15T20:29:15.000Z,0
2016-05-15T20:30:15.176Z,0
2016-05-15T20:31:15.164Z,0
2016-05-15T20:32:15.166Z,0
2016-05-15T20:33:14.824Z,0
2016-05-15T20:34:14.967Z,0
2016-05-15T20:35:15.017Z,0
2016-05-15T20:36:15.020Z,0
2016-05-15T20:37:14.975Z,0
2016-05-15T20:38:14.994Z,0
2016-05-15T20:39:15.216Z,0
2016-05-15T20:40:14.984Z,0
2016-05-15T20:41:15.236Z,0
2016-05-15T20:42:15.004Z,0
2016-05-15T20:43:14.992Z,0
2016-05-15T20:44:29.229Z,0
2016-05-15T20:45:15.169Z,0
2016-05-15T20:46:15.000Z,0
2016-05-15T20:47:15.174Z,0
2016-05-15T20:48:14.817Z,0
2016-05-15T20:49:14.992Z,0
2016-05-15T20:50:15.340Z,0
2016-05-15T20:51:14.967Z,0
2016-05-15T20:52:14.829Z,0
2016-05-15T20:53:14.831Z,0
2016-05-15T20:54:14.959Z,0
2016-05-15T20:55:14.993Z,0
2016-05-15T20:56:14.995Z,0
2016-05-15T20:57:15.201Z,0
2016-05-15T20:58:15.266Z,0
2016-05-15T20:59:14.957Z,0
2016-05-15T21:00:14.960Z,0
2016-05-15T21:01:14.962Z,0
2016-05-15T21:02:14.465Z,0
2016-05-15T21:03:14.983Z,0
2016-05-15T21:04:15.173Z,0
2016-05-15T21:05:15.019Z,0
2016-05-15T21:06:15.007Z,0
2016-05-15T21:07:14.478Z,0
2016-05-15T21:08:14.481Z,0
2016-05-15T21:09:14.999Z,0
2016-05-15T21:10:15.018Z,0
2016-05-15T21:11:14.974Z,0
2016-05-15T21:12:15.007Z,0
2016-05-15T21:13:14.854Z,0
2016-05-15T21:14:15.153Z,0
2016-05-15T21:15:15.063Z,0
2016-05-15T21:16:15.019Z,0
2016-05-15T21:17:15.677Z,0
2016-05-15T21:18:14.789Z,0
2016-05-15T21:19:15.042Z,0
2016-05-15T21:20:15.216Z,0
2016-05-15T21:21:29.281Z,0
2016-05-15T21:22:15.175Z,0
2016-05-15T21:23:14.959Z,0
2016-05-15T21:24:18.212Z,0
2016-05-15T21:25:14.808Z,0
